Gandhi — A8OK8 — position and weather

sailwx.info

Track history (hours):
 
Tides and Currents Weather Stations Pressure Air Temp Water Temp Dewpoint Dewpoint Depression Visibility Wind Speed Wind Dir Waves Ship Positions

Gandhi

Last reported at 2016-Jul-27 19:13 UTC. Time now 2016-Jul-28 01:00 UTC.
Position N 37°22' E 010°36'.

Length 176 m; draft 9.6 m.

Type: Tanker. MMSI: 636013645.

Date/timePositionNaut miles runAvg speedWind from/ knotsBaromVisibWave heightAir tempDewpointWater temp
2016-Jul-27 19:13N 37°22' E 010°36'  
2016-Jul-23 14:33N 37°17' E 009°55'0 0.0
2016-Jul-23 13:33N 37°17' E 009°55'0 0.1
2016-Jul-23 12:33N 37°17' E 009°55'46 7.6
2016-Jul-23 06:32N 37°31' E 010°50'4312.8
2016-Jul-23 03:12N 37°16' E 011°40'913.2
2016-Jul-23 02:33N 37°13' E 011°50'1313.1
2016-Jul-23 01:33N 37°08' E 012°06'1312.6
2016-Jul-23 00:32N 37°05' E 012°21'1212.7
2016-Jul-22 23:33N 37°01' E 012°36'1312.8
2016-Jul-22 22:33N 36°57' E 012°51'1212.3
2016-Jul-22 21:33N 36°52' E 013°05'1312.6
2016-Jul-22 20:33N 36°48' E 013°20'1312.7
2016-Jul-22 19:33N 36°44' E 013°35'1312.8
2016-Jul-22 18:33N 36°39' E 013°50'1212.3
2016-Jul-22 17:33N 36°35' E 014°04'1212.1
2016-Jul-22 16:33N 36°31' E 014°19'1312.8
2016-Jul-22 15:33N 36°28' E 014°34'1412.4
2016-Jul-22 14:24N 36°26' E 014°52'45011.9
2016-Jul-21 00:29N 37°35' E 024°08'1813.5
2016-Jul-20 23:07N 37°49' E 024°24'  
2016-Jul-18 16:34N 43°49' E 035°43'4412.9
2016-Jul-18 13:10N 44°09' E 036°37'812.9
2016-Jul-18 12:33N 44°13' E 036°46'1313.1
2016-Jul-18 11:34N 44°20' E 037°02'1514.7
2016-Jul-18 10:33N 44°26' E 037°21'1413.8
2016-Jul-18 09:33N 44°32' E 037°38'1211.7
2016-Jul-18 08:33N 44°40' E 037°51'5 4.6
2016-Jul-18 07:33N 44°44' E 037°47'0 0.1
2016-Jul-18 06:33N 44°44' E 037°47'0 0.0
2016-Jul-18 05:33N 44°44' E 037°47'0 0.0
2016-Jul-18 04:33N 44°44' E 037°47'0 0.0
2016-Jul-18 03:33N 44°44' E 037°47'0 0.0
2016-Jul-18 02:33N 44°44' E 037°47'0 0.0
2016-Jul-18 01:33N 44°44' E 037°47'0 0.0
2016-Jul-18 00:30N 44°44' E 037°47'0 0.0
2016-Jul-17 23:33N 44°44' E 037°47'0 0.0
2016-Jul-17 22:33N 44°44' E 037°47'0 0.0
2016-Jul-17 21:33N 44°44' E 037°47'0 0.0
2016-Jul-17 20:33N 44°44' E 037°47'0 0.0
2016-Jul-17 19:33N 44°44' E 037°47'  
Track history (hours):
 
Tides and Currents Weather Stations Pressure Air Temp Water Temp Dewpoint Dewpoint Depression Visibility Wind Speed Wind Dir Waves Ship Positions

Gandhi

Last reported at 2016-Jul-27 19:13 UTC. Time now 2016-Jul-28 01:00 UTC.
Position N 37°22' E 010°36'.

Length 176 m; draft 9.6 m.

Type: Tanker. MMSI: 636013645.

Date/timePositionNaut miles runAvg speedWind from/ knotsBaromVisibWave heightAir tempDewpointWater temp
2016-Jul-27 19:13N 37°22' E 010°36'  
2016-Jul-23 14:33N 37°17' E 009°55'0 0.0
2016-Jul-23 13:33N 37°17' E 009°55'0 0.1
2016-Jul-23 12:33N 37°17' E 009°55'46 7.6
2016-Jul-23 06:32N 37°31' E 010°50'4312.8
2016-Jul-23 03:12N 37°16' E 011°40'913.2
2016-Jul-23 02:33N 37°13' E 011°50'1313.1
2016-Jul-23 01:33N 37°08' E 012°06'1312.6
2016-Jul-23 00:32N 37°05' E 012°21'1212.7
2016-Jul-22 23:33N 37°01' E 012°36'1312.8
2016-Jul-22 22:33N 36°57' E 012°51'1212.3
2016-Jul-22 21:33N 36°52' E 013°05'1312.6
2016-Jul-22 20:33N 36°48' E 013°20'1312.7
2016-Jul-22 19:33N 36°44' E 013°35'1312.8
2016-Jul-22 18:33N 36°39' E 013°50'1212.3
2016-Jul-22 17:33N 36°35' E 014°04'1212.1
2016-Jul-22 16:33N 36°31' E 014°19'1312.8
2016-Jul-22 15:33N 36°28' E 014°34'1412.4
2016-Jul-22 14:24N 36°26' E 014°52'45011.9
2016-Jul-21 00:29N 37°35' E 024°08'1813.5
2016-Jul-20 23:07N 37°49' E 024°24'  
2016-Jul-18 16:34N 43°49' E 035°43'4412.9
2016-Jul-18 13:10N 44°09' E 036°37'812.9
2016-Jul-18 12:33N 44°13' E 036°46'1313.1
2016-Jul-18 11:34N 44°20' E 037°02'1514.7
2016-Jul-18 10:33N 44°26' E 037°21'1413.8
2016-Jul-18 09:33N 44°32' E 037°38'1211.7
2016-Jul-18 08:33N 44°40' E 037°51'5 4.6
2016-Jul-18 07:33N 44°44' E 037°47'0 0.1
2016-Jul-18 06:33N 44°44' E 037°47'0 0.0
2016-Jul-18 05:33N 44°44' E 037°47'0 0.0
2016-Jul-18 04:33N 44°44' E 037°47'0 0.0
2016-Jul-18 03:33N 44°44' E 037°47'0 0.0
2016-Jul-18 02:33N 44°44' E 037°47'0 0.0
2016-Jul-18 01:33N 44°44' E 037°47'0 0.0
2016-Jul-18 00:30N 44°44' E 037°47'0 0.0
2016-Jul-17 23:33N 44°44' E 037°47'0 0.0
2016-Jul-17 22:33N 44°44' E 037°47'0 0.0
2016-Jul-17 21:33N 44°44' E 037°47'0 0.0
2016-Jul-17 20:33N 44°44' E 037°47'0 0.0
2016-Jul-17 19:33N 44°44' E 037°47'  

Dump ship's entire track history